Time;durP1;ratioP1;P1;durP2;ratioP2;P2;SDS_P1;SDS_P2;PMS_P1;PMS_P2;Temp;Humidity;BMP_temperature;BMP_pressure;BME280_temperature;BME280_humidity;BME280_pressure;Samples;Min_cycle;Max_cycle;Signal;HPM_P1;HPM_P2
2023/05/15 00:01:29;;;;;;;15.13;6.93;;;;;;;20.29;33.13;100060.16;4977253;28;20042;-67
2023/05/15 00:03:55;;;;;;;12.73;7.07;;;;;;;20.29;33.10;100062.84;4977463;28;20046;-67
2023/05/15 00:06:21;;;;;;;13.77;7.13;;;;;;;20.26;33.14;100062.44;5010337;28;20060;-67
2023/05/15 00:08:49;;;;;;;16.52;7.60;;;;;;;20.26;33.25;100068.66;5009557;28;20054;-67
2023/05/15 00:11:15;;;;;;;20.58;8.15;;;;;;;20.22;33.49;100061.22;4993443;28;20111;-67
2023/05/15 00:13:42;;;;;;;14.38;7.40;;;;;;;20.18;33.15;100063.50;4977115;28;20482;-68
2023/05/15 00:16:08;;;;;;;17.58;7.78;;;;;;;20.16;33.32;100059.34;4976954;28;20041;-67
2023/05/15 00:18:34;;;;;;;13.52;7.40;;;;;;;20.10;33.87;100064.50;4977121;28;20084;-67
2023/05/15 00:21:00;;;;;;;14.10;8.20;;;;;;;20.04;33.80;100065.34;5006987;28;20115;-67
2023/05/15 00:23:26;;;;;;;16.65;8.80;;;;;;;20.04;33.70;100064.50;4981520;28;20437;-67
2023/05/15 00:25:51;;;;;;;17.33;7.97;;;;;;;20.01;33.76;100060.38;4998191;28;20546;-67
2023/05/15 00:28:17;;;;;;;18.33;7.95;;;;;;;19.93;34.04;100062.44;4981476;28;20084;-67
2023/05/15 00:30:43;;;;;;;15.95;8.13;;;;;;;19.96;34.01;100062.00;4997446;28;20509;-67
2023/05/15 00:33:09;;;;;;;14.73;7.75;;;;;;;19.93;34.06;100068.66;4997664;28;20137;-67
2023/05/15 00:35:36;;;;;;;13.95;7.88;;;;;;;19.88;34.32;100070.34;4982024;28;20049;-67
2023/05/15 00:38:01;;;;;;;15.80;7.50;;;;;;;19.88;34.25;100065.75;5013786;28;20056;-67
2023/05/15 00:40:31;;;;;;;17.27;8.60;;;;;;;19.98;34.86;100060.78;4997768;28;20128;-67
2023/05/15 00:42:57;;;;;;;19.65;9.20;;;;;;;19.77;34.56;100070.94;5014116;28;20424;-66
2023/05/15 00:45:24;;;;;;;17.90;8.88;;;;;;;19.83;34.66;100070.13;5017661;28;20107;-66
2023/05/15 00:47:50;;;;;;;18.65;10.15;;;;;;;19.74;34.69;100074.06;5017344;28;20044;-67
2023/05/15 00:50:16;;;;;;;19.77;12.30;;;;;;;19.80;34.39;100065.94;5000730;28;20389;-67
2023/05/15 00:52:43;;;;;;;21.70;12.75;;;;;;;19.85;34.56;100074.25;5015619;28;20420;-67
2023/05/15 00:55:09;;;;;;;23.17;13.45;;;;;;;19.83;34.47;100070.91;4999591;28;20129;-67
2023/05/15 00:57:35;;;;;;;21.35;13.35;;;;;;;19.68;34.59;100069.50;5053902;28;20497;-67
2023/05/15 01:00:03;;;;;;;22.15;12.75;;;;;;;19.72;34.83;100070.72;5037723;28;20056;-67
2023/05/15 01:02:32;;;;;;;;;;;;;;;20.51;33.84;100075.03;5038566;28;20056;-67
2023/05/15 01:04:57;;;;;;;18.60;11.88;;;;;;;19.72;34.67;100071.56;5037640;28;19921;-67
2023/05/15 01:07:23;;;;;;;20.30;11.07;;;;;;;19.74;34.52;100074.06;5006436;28;20056;-67
2023/05/15 01:09:51;;;;;;;17.60;10.15;;;;;;;19.96;34.51;100079.03;5038943;28;20041;-67
2023/05/15 01:12:17;;;;;;;18.75;11.07;;;;;;;19.74;34.60;100080.25;5039048;28;20139;-67
2023/05/15 01:14:43;;;;;;;18.50;10.95;;;;;;;19.62;34.62;100081.09;5022743;28;20453;-67
2023/05/15 01:17:09;;;;;;;18.17;11.13;;;;;;;19.58;34.82;100086.06;5022202;28;20491;-67
2023/05/15 01:19:35;;;;;;;19.20;10.98;;;;;;;19.62;34.64;100078.41;5055374;28;20062;-67
2023/05/15 01:22:17;;;;;;;22.58;11.85;;;;;;;19.59;34.91;100074.22;5038774;28;20380;-67
2023/05/15 01:25:12;;;;;;;23.38;11.60;;;;;;;20.19;34.81;100075.13;5038689;28;20048;-67
2023/05/15 01:27:51;;;;;;;16.92;11.00;;;;;;;20.16;34.76;100073.66;5001251;28;20045;-67
2023/05/15 01:30:22;;;;;;;18.38;10.20;;;;;;;19.90;35.29;100079.84;5016399;28;20052;-67
2023/05/15 01:33:15;;;;;;;16.67;9.77;;;;;;;20.11;34.79;100081.53;5016124;28;20049;-67
2023/05/15 01:35:45;;;;;;;21.80;9.20;;;;;;;19.88;34.97;100064.94;5016182;28;20045;-67
2023/05/15 01:38:23;;;;;;;13.57;8.13;;;;;;;20.11;34.94;100073.44;4999880;28;20106;-67
2023/05/15 01:40:56;;;;;;;16.85;8.45;;;;;;;19.96;35.25;100073.63;5032816;28;20041;-66
2023/05/15 01:43:23;;;;;;;11.88;7.50;;;;;;;19.81;34.82;100081.09;4999964;28;20045;-67
2023/05/15 01:45:51;;;;;;;15.73;8.27;;;;;;;19.87;35.18;100079.44;5032335;28;20144;-67
2023/05/15 01:48:18;;;;;;;15.75;8.00;;;;;;;19.85;34.89;100079.66;4999965;28;20045;-66
2023/05/15 01:50:44;;;;;;;20.45;8.13;;;;;;;19.76;34.81;100083.59;5016074;28;20045;-67
2023/05/15 01:53:11;;;;;;;14.95;7.57;;;;;;;19.81;34.58;100081.09;5032355;28;20048;-68
2023/05/15 01:55:41;;;;;;;13.43;7.05;;;;;;;20.00;34.55;100088.34;5015680;28;20465;-67
2023/05/15 01:58:08;;;;;;;13.88;7.07;;;;;;;19.81;34.11;100085.66;5015949;28;20140;-67
2023/05/15 02:00:36;;;;;;;15.30;7.63;;;;;;;19.99;34.54;100088.56;4999557;28;20504;-67
2023/05/15 02:03:04;;;;;;;13.73;6.93;;;;;;;20.17;33.88;100093.38;4999561;28;20046;-67
2023/05/15 02:05:30;;;;;;;13.23;6.80;;;;;;;19.82;33.86;100092.69;4983692;28;20496;-67
2023/05/15 02:07:56;;;;;;;16.55;7.55;;;;;;;19.82;34.12;100098.09;5067855;28;20049;-66
2023/05/15 02:10:22;;;;;;;13.60;7.03;;;;;;;19.86;33.96;100100.19;5034296;28;20077;-67
2023/05/15 02:12:49;;;;;;;15.00;6.88;;;;;;;20.00;34.09;100099.13;5017844;28;20055;-66
2023/05/15 02:15:16;;;;;;;17.85;7.03;;;;;;;20.10;33.87;100096.88;5051429;28;20048;-67
2023/05/15 02:17:45;;;;;;;13.52;7.18;;;;;;;19.84;33.79;100098.72;5050462;28;20040;-67
2023/05/15 02:20:11;;;;;;;18.80;6.57;;;;;;;19.89;33.81;100101.63;5017659;28;20063;-67
2023/05/15 02:22:37;;;;;;;19.83;6.75;;;;;;;19.84;33.80;100106.81;5034255;28;20048;-67
2023/05/15 02:25:04;;;;;;;9.40;5.80;;;;;;;19.89;33.82;100105.16;4991228;28;20069;-67
2023/05/15 02:27:48;;;;;;;19.95;6.95;;;;;;;20.50;33.57;100104.94;4943846;28;20058;-66
2023/05/15 02:30:25;;;;;;;12.52;6.45;;;;;;;20.48;33.63;100102.44;4958229;28;20073;-67
2023/05/15 02:33:12;;;;;;;12.25;6.40;;;;;;;20.43;33.58;100093.34;4952483;28;20059;-67
2023/05/15 02:35:45;;;;;;;8.40;6.22;;;;;;;20.60;33.33;100106.19;4952636;28;20106;-66
2023/05/15 02:38:15;;;;;;;16.73;7.20;;;;;;;20.55;33.49;100105.97;4936678;29;20499;-67
2023/05/15 02:40:45;;;;;;;12.23;6.82;;;;;;;20.53;33.25;100108.06;4952490;28;20145;-66
2023/05/15 02:43:12;;;;;;;14.70;7.28;;;;;;;20.38;33.45;100103.91;4917326;29;20060;-66
2023/05/15 02:45:38;;;;;;;21.00;8.02;;;;;;;20.39;33.41;100111.00;4905566;29;20548;-66
2023/05/15 02:48:05;;;;;;;12.73;7.95;;;;;;;20.38;33.30;100103.91;4882793;29;20056;-66
2023/05/15 02:50:32;;;;;;;20.90;8.65;;;;;;;20.26;33.56;100105.59;4895370;29;20079;-66
2023/05/15 02:53:08;;;;;;;18.75;8.75;;;;;;;20.80;33.64;100100.72;4913486;29;20063;-66
2023/05/15 02:55:35;;;;;;;25.88;9.63;;;;;;;20.50;33.53;100104.94;4929874;28;20069;-67
2023/05/15 02:58:45;;;;;;;21.77;8.68;;;;;;;21.12;33.03;100114.16;4923864;28;20072;-67
2023/05/15 03:01:12;;;;;;;22.17;8.60;;;;;;;20.54;33.51;100115.13;4955163;28;20054;-67
2023/05/15 03:03:38;;;;;;;19.08;8.75;;;;;;;20.69;33.49;100109.47;4963566;28;20153;-68
2023/05/15 03:06:05;;;;;;;22.35;8.60;;;;;;;20.54;33.77;100108.88;4973626;28;20497;-68
2023/05/15 03:08:31;;;;;;;25.85;8.75;;;;;;;20.80;33.62;100114.22;4974741;28;20057;-67
2023/05/15 03:11:00;;;;;;;16.58;9.63;;;;;;;20.67;33.48;100115.09;4990655;28;20057;-67
2023/05/15 03:13:26;;;;;;;15.40;9.25;;;;;;;20.69;33.84;100115.72;4998735;28;20057;-67
2023/05/15 03:15:52;;;;;;;22.58;9.18;;;;;;;20.81;34.18;100118.56;5029876;28;20227;-67
2023/05/15 03:18:18;;;;;;;21.38;8.60;;;;;;;20.91;33.99;100111.69;5029478;28;20168;-67
2023/05/15 03:20:46;;;;;;;22.02;9.23;;;;;;;21.13;33.90;100123.91;5029667;28;20049;-67
2023/05/15 03:23:11;;;;;;;22.85;8.73;;;;;;;21.18;33.27;100134.91;5013547;28;20042;-68
2023/05/15 03:25:37;;;;;;;16.48;8.13;;;;;;;21.27;33.33;100132.78;5029476;28;20132;-68
2023/05/15 03:28:04;;;;;;;16.90;8.32;;;;;;;21.42;32.63;100133.31;5029771;28;20052;-69
2023/05/15 03:30:30;;;;;;;19.48;7.95;;;;;;;21.43;32.24;100126.88;5013712;28;20528;-71
2023/05/15 03:32:58;;;;;;;14.38;8.05;;;;;;;21.72;32.12;100145.22;5009408;28;20093;-68
2023/05/15 03:35:25;;;;;;;21.42;7.80;;;;;;;21.64;32.48;100137.34;5009999;28;20046;-69
2023/05/15 03:37:51;;;;;;;15.38;7.63;;;;;;;21.70;31.95;100139.19;5013728;28;20046;-70
2023/05/15 03:40:17;;;;;;;20.95;7.43;;;;;;;21.75;31.94;100143.97;4990115;28;20504;-70
2023/05/15 03:42:43;;;;;;;21.15;7.25;;;;;;;21.78;31.66;100140.84;4990352;28;20148;-68
2023/05/15 03:45:09;;;;;;;13.90;7.95;;;;;;;21.78;31.75;100141.69;5006414;28;20052;-68
2023/05/15 03:47:35;;;;;;;16.48;7.25;;;;;;;21.80;31.03;100145.00;5006996;28;20060;-67
2023/05/15 03:50:01;;;;;;;14.00;7.40;;;;;;;21.89;30.81;100135.56;5006664;28;20486;-67
2023/05/15 03:52:30;;;;;;;14.02;7.38;;;;;;;22.23;30.89;100142.38;4956338;28;20133;-67
2023/05/15 03:55:17;;;;;;;15.50;7.80;;;;;;;22.13;30.71;100148.28;4977047;28;20127;-68
2023/05/15 03:57:43;;;;;;;11.80;7.50;;;;;;;22.12;30.63;100146.63;5023423;28;20044;-68
2023/05/15 04:00:09;;;;;;;17.33;7.82;;;;;;;22.28;30.24;100143.38;4997689;28;20056;-69
2023/05/15 04:02:39;;;;;;;15.20;7.83;;;;;;;22.51;30.37;100148.22;5013036;28;20052;-69
2023/05/15 04:05:07;;;;;;;16.00;7.35;;;;;;;22.58;29.96;100146.25;5012910;28;20076;-68
2023/05/15 04:07:34;;;;;;;17.00;7.13;;;;;;;22.57;29.90;100150.03;4997230;28;20140;-68
2023/05/15 04:10:00;;;;;;;13.57;7.68;;;;;;;22.43;29.91;100153.88;4979838;28;20060;-68
2023/05/15 04:12:31;;;;;;;10.75;7.55;;;;;;;23.09;29.88;100152.19;4960784;28;20085;-68
2023/05/15 04:15:15;;;;;;;;;;;;;;;23.49;29.26;100164.22;4993108;28;20057;-68
2023/05/15 04:17:44;;;;;;;16.85;7.60;;;;;;;23.00;29.77;100154.34;4994542;28;19917;-68
2023/05/15 04:20:13;;;;;;;17.55;7.78;;;;;;;23.05;29.68;100153.66;4984277;28;20121;-68
2023/05/15 04:22:39;;;;;;;20.33;7.18;;;;;;;22.74;29.86;100156.53;4982764;28;20050;-69
2023/05/15 04:25:06;;;;;;;17.83;7.95;;;;;;;22.90;29.54;100154.06;5000065;28;20833;-68
2023/05/15 04:27:32;;;;;;;13.40;6.95;;;;;;;23.02;29.60;100157.66;4973088;28;20042;-68
2023/05/15 04:29:59;;;;;;;15.68;6.38;;;;;;;23.18;29.28;100156.22;4976915;28;20156;-68
2023/05/15 04:32:26;;;;;;;15.23;5.80;;;;;;;22.90;29.06;100156.75;4977553;28;20062;-68
2023/05/15 04:34:52;;;;;;;11.82;5.78;;;;;;;23.12;28.91;100152.56;4987795;28;20908;-68
2023/05/15 04:37:18;;;;;;;13.75;5.68;;;;;;;23.03;28.59;100153.88;5000180;28;20061;-68
2023/05/15 04:39:44;;;;;;;15.73;5.70;;;;;;;23.08;28.99;100150.50;5000088;28;20123;-68
2023/05/15 04:42:10;;;;;;;12.00;5.43;;;;;;;23.04;28.71;100157.44;5000099;28;20517;-67
2023/05/15 04:44:36;;;;;;;16.38;6.03;;;;;;;23.12;28.34;100159.84;5000276;28;20461;-68
2023/05/15 04:47:02;;;;;;;14.02;7.38;;;;;;;23.37;28.36;100163.34;5019367;28;20051;-68
2023/05/15 04:49:28;;;;;;;14.88;5.10;;;;;;;23.28;28.19;100165.50;5003176;28;20435;-68
2023/05/15 04:51:57;;;;;;;12.93;5.10;;;;;;;23.43;27.99;100169.72;5017976;28;20049;-68
2023/05/15 04:54:23;;;;;;;8.07;3.85;;;;;;;23.47;27.93;100170.91;4985606;28;20094;-68
2023/05/15 04:56:49;;;;;;;11.50;4.20;;;;;;;23.49;27.54;100166.94;5018943;28;20121;-67
2023/05/15 04:59:16;;;;;;;11.15;4.20;;;;;;;23.63;27.37;100167.56;5002515;28;20466;-68
2023/05/15 05:01:42;;;;;;;9.32;4.45;;;;;;;23.87;27.31;100172.84;5002093;28;20073;-68
2023/05/15 05:04:08;;;;;;;7.55;4.28;;;;;;;23.69;27.67;100166.66;5003220;28;20041;-68
2023/05/15 05:06:35;;;;;;;6.50;3.42;;;;;;;23.80;27.00;100161.25;5002854;28;20123;-67
2023/05/15 05:09:00;;;;;;;9.80;3.33;;;;;;;23.83;26.90;100165.41;5015775;28;20420;-68
2023/05/15 05:11:27;;;;;;;9.05;3.47;;;;;;;23.89;26.77;100164.50;4999566;28;20501;-67
2023/05/15 05:13:53;;;;;;;7.38;3.40;;;;;;;24.08;26.41;100164.22;4967370;28;20052;-68
2023/05/15 05:16:20;;;;;;;7.90;3.42;;;;;;;24.01;26.53;100163.50;4999388;28;20579;-68
2023/05/15 05:18:46;;;;;;;6.82;3.22;;;;;;;24.15;26.14;100167.66;4983173;28;20061;-68
2023/05/15 05:21:11;;;;;;;7.00;3.35;;;;;;;24.18;26.03;100163.66;4980028;28;20042;-68
2023/05/15 05:23:37;;;;;;;7.78;2.28;;;;;;;24.22;25.61;100164.81;4979947;28;20104;-67
2023/05/15 05:26:03;;;;;;;3.88;2.33;;;;;;;24.34;25.48;100162.97;4979926;28;20417;-67
2023/05/15 05:28:29;;;;;;;8.35;2.60;;;;;;;24.34;25.38;100160.25;4995038;28;20150;-67
2023/05/15 05:30:55;;;;;;;7.97;2.50;;;;;;;24.47;25.23;100157.31;4995743;28;20038;-67
2023/05/15 05:33:20;;;;;;;10.48;2.97;;;;;;;24.56;25.04;100161.31;4995866;28;20056;-68
2023/05/15 05:35:46;;;;;;;10.98;2.92;;;;;;;24.57;24.92;100160.28;4995695;28;20069;-68
2023/05/15 05:38:13;;;;;;;6.43;2.72;;;;;;;24.82;25.63;100158.16;4963460;28;20046;-68
2023/05/15 05:40:39;;;;;;;10.88;2.08;;;;;;;24.74;24.95;100161.22;5008712;28;20490;-68
2023/05/15 05:43:05;;;;;;;7.72;2.47;;;;;;;24.77;25.27;100161.59;4996612;28;20099;-68
2023/05/15 05:45:31;;;;;;;12.32;2.53;;;;;;;24.90;25.41;100163.25;4980746;28;20042;-68
2023/05/15 05:47:57;;;;;;;6.38;2.42;;;;;;;25.12;24.94;100158.00;4996642;28;20496;-68
2023/05/15 05:50:23;;;;;;;12.13;2.78;;;;;;;25.15;24.36;100162.97;4980489;28;20057;-68
2023/05/15 05:52:50;;;;;;;3.30;2.03;;;;;;;25.15;24.68;100157.53;5013097;28;20073;-67
2023/05/15 05:55:16;;;;;;;6.28;2.30;;;;;;;25.15;24.33;100152.09;4996717;28;20509;-68
2023/05/15 05:57:42;;;;;;;4.70;1.90;;;;;;;25.14;23.92;100153.16;4980748;28;20049;-68
2023/05/15 06:00:09;;;;;;;5.40;2.42;;;;;;;25.32;23.92;100156.56;4996695;28;20500;-68
2023/05/15 06:02:37;;;;;;;5.53;2.30;;;;;;;25.64;23.96;100148.78;5029262;28;20462;-67
2023/05/15 06:05:03;;;;;;;7.40;2.40;;;;;;;25.55;24.01;100151.06;4996440;28;20041;-68
2023/05/15 06:07:30;;;;;;;11.02;2.30;;;;;;;25.58;24.06;100147.84;4996492;28;20115;-67
2023/05/15 06:09:55;;;;;;;5.22;2.13;;;;;;;25.62;24.23;100142.72;4996214;28;20045;-68
2023/05/15 06:12:22;;;;;;;3.38;1.60;;;;;;;25.84;23.54;100149.16;4996448;28;20129;-68
2023/05/15 06:14:48;;;;;;;4.63;1.98;;;;;;;25.75;23.43;100151.47;4996185;28;20048;-68
2023/05/15 06:17:14;;;;;;;6.35;1.90;;;;;;;25.92;23.62;100152.31;4996456;28;20046;-68
2023/05/15 06:19:40;;;;;;;5.25;1.80;;;;;;;26.15;23.13;100154.09;4980003;28;20061;-68
2023/05/15 06:22:05;;;;;;;3.55;1.35;;;;;;;25.97;23.17;100149.66;4996226;28;20046;-68
2023/05/15 06:24:32;;;;;;;1.52;1.30;;;;;;;26.18;23.05;100148.16;5012460;28;20041;-68
2023/05/15 06:26:58;;;;;;;2.67;1.40;;;;;;;26.26;22.60;100148.56;4995904;28;20540;-68
2023/05/15 06:29:23;;;;;;;5.55;1.88;;;;;;;26.40;22.80;100143.63;4996028;28;20054;-68
2023/05/15 06:31:49;;;;;;;4.93;1.45;;;;;;;26.61;22.27;100142.03;4995845;28;20473;-68
2023/05/15 06:34:15;;;;;;;3.67;1.45;;;;;;;26.73;21.84;100157.25;5012249;28;20038;-68
2023/05/15 06:36:41;;;;;;;4.30;1.55;;;;;;;26.96;21.93;100154.31;4996045;28;20053;-68
2023/05/15 06:39:09;;;;;;;7.03;1.90;;;;;;;27.18;21.58;100151.59;5011923;28;20053;-68
2023/05/15 06:41:36;;;;;;;4.60;2.30;;;;;;;27.62;20.89;100145.88;4979981;28;20548;-68
2023/05/15 06:44:03;;;;;;;6.90;2.75;;;;;;;27.86;20.73;100149.94;4995902;28;20441;-68
2023/05/15 06:46:29;;;;;;;3.90;2.20;;;;;;;28.33;20.38;100144.69;5011906;28;20041;-68
2023/05/15 06:48:55;;;;;;;3.15;1.48;;;;;;;28.32;19.98;100148.50;5011755;28;20136;-67
2023/05/15 06:51:21;;;;;;;5.22;1.98;;;;;;;28.58;19.29;100150.38;4995562;28;20136;-68
2023/05/15 06:53:47;;;;;;;7.93;2.50;;;;;;;28.59;19.26;100146.53;4995491;28;20046;-68
2023/05/15 06:56:12;;;;;;;4.55;1.90;;;;;;;28.86;18.97;100151.91;4995504;28;20038;-68
2023/05/15 06:58:38;;;;;;;5.88;2.10;;;;;;;29.33;18.69;100144.50;5011687;28;20046;-68
2023/05/15 07:01:05;;;;;;;7.10;2.30;;;;;;;29.72;18.33;100151.25;4995416;28;20104;-68
2023/05/15 07:03:32;;;;;;;7.35;1.80;;;;;;;29.94;18.17;100156.50;4995434;28;20132;-68
2023/05/15 07:05:58;;;;;;;8.48;2.10;;;;;;;30.03;17.81;100149.38;5027896;28;20053;-68
2023/05/15 07:08:24;;;;;;;2.67;1.42;;;;;;;30.20;17.16;100149.97;4979369;28;20089;-68
2023/05/15 07:10:50;;;;;;;7.55;1.40;;;;;;;30.66;17.36;100148.84;4995121;28;20053;-68
2023/05/15 07:13:19;;;;;;;4.97;1.48;;;;;;;31.02;17.06;100145.78;4995651;28;20038;-68
2023/05/15 07:15:45;;;;;;;4.13;1.30;;;;;;;31.48;16.43;100148.34;4995502;28;20069;-68
2023/05/15 07:18:11;;;;;;;4.18;1.60;;;;;;;31.87;16.47;100150.09;4995112;28;20068;-68
2023/05/15 07:20:37;;;;;;;3.70;1.50;;;;;;;32.13;15.63;100154.31;5011470;28;20049;-68
2023/05/15 07:23:04;;;;;;;2.95;1.80;;;;;;;32.29;15.51;100146.75;5011388;28;20073;-68
2023/05/15 07:25:30;;;;;;;2.53;1.27;;;;;;;33.51;14.62;100142.47;5011287;28;20080;-68
2023/05/15 07:27:56;;;;;;;11.13;2.13;;;;;;;33.83;14.14;100137.84;4995207;28;20072;-68
2023/05/15 07:30:22;;;;;;;5.10;2.00;;;;;;;34.36;13.95;100143.94;4995055;28;20052;-69
2023/05/15 07:32:48;;;;;;;5.60;1.70;;;;;;;34.17;14.14;100137.63;4995072;28;20042;-69
2023/05/15 07:35:14;;;;;;;2.70;1.80;;;;;;;34.64;13.44;100131.88;4979301;28;20046;-68
2023/05/15 07:37:40;;;;;;;4.05;2.30;;;;;;;34.92;13.15;100132.78;4994912;28;20152;-68
2023/05/15 07:40:08;;;;;;;6.05;1.58;;;;;;;35.27;13.29;100126.53;5010937;28;20037;-68
2023/05/15 07:42:33;;;;;;;3.60;1.55;;;;;;;35.56;12.81;100133.38;5011292;28;20053;-68
2023/05/15 07:45:00;;;;;;;3.92;1.52;;;;;;;36.95;12.10;100126.63;5011161;28;20041;-69
2023/05/15 07:47:26;;;;;;;7.28;2.03;;;;;;;36.83;11.82;100124.44;5011166;28;20045;-68
2023/05/15 07:49:52;;;;;;;5.28;1.67;;;;;;;36.61;11.92;100121.69;4994608;28;20053;-69
2023/05/15 07:52:17;;;;;;;5.18;2.13;;;;;;;36.11;12.40;100116.59;5011786;28;20054;-69
2023/05/15 07:54:43;;;;;;;7.68;2.15;;;;;;;35.74;12.67;100110.28;4958916;28;20523;-69
2023/05/15 07:57:09;;;;;;;2.63;1.20;;;;;;;36.88;11.81;100115.16;4959106;28;20683;-69
2023/05/15 07:59:35;;;;;;;2.17;1.25;;;;;;;37.10;11.53;100112.31;4958792;28;20051;-68
2023/05/15 08:02:01;;;;;;;1.35;1.10;;;;;;;37.46;11.19;100112.91;4958961;28;20051;-69
2023/05/15 08:04:27;;;;;;;4.57;1.27;;;;;;;38.88;10.10;100113.47;4958997;28;20047;-69
2023/05/15 08:06:54;;;;;;;5.32;1.15;;;;;;;40.17;9.24;100111.50;4958688;28;20047;-69
2023/05/15 08:09:20;;;;;;;7.28;1.20;;;;;;;40.32;8.91;100104.50;4959157;28;20043;-69
2023/05/15 08:11:46;;;;;;;4.25;1.00;;;;;;;39.51;9.60;100101.38;4974840;28;20050;-69
2023/05/15 08:14:12;;;;;;;6.22;1.20;;;;;;;41.28;8.59;100104.66;4958766;28;20053;-69
2023/05/15 08:16:38;;;;;;;4.47;1.60;;;;;;;43.41;7.21;100108.25;5007217;28;20047;-69
2023/05/15 08:19:06;;;;;;;5.95;1.33;;;;;;;43.67;7.01;100108.47;4958248;28;20141;-69
2023/05/15 08:21:32;;;;;;;4.95;1.30;;;;;;;43.19;7.50;100109.75;4974358;28;20153;-69
2023/05/15 08:23:59;;;;;;;5.97;1.25;;;;;;;41.40;8.05;100101.84;4958583;28;20181;-69
2023/05/15 08:26:26;;;;;;;5.45;1.92;;;;;;;40.03;8.51;100113.75;4958439;28;20051;-69
2023/05/15 08:28:52;;;;;;;4.70;1.00;;;;;;;40.51;8.67;100100.03;4958319;28;20051;-69
2023/05/15 08:31:18;;;;;;;5.70;1.00;;;;;;;43.35;7.33;100090.16;4981132;28;20184;-69
2023/05/15 08:33:44;;;;;;;6.68;1.10;;;;;;;45.45;6.20;100090.63;4998101;28;20137;-69
2023/05/15 08:36:10;;;;;;;2.70;1.20;;;;;;;44.59;5.77;100095.19;4997965;28;20131;-69
2023/05/15 08:38:36;;;;;;;3.70;1.27;;;;;;;44.15;6.57;100088.31;4997887;28;20466;-69
2023/05/15 08:41:07;;;;;;;7.93;1.10;;;;;;;46.11;5.92;100080.28;5014610;28;20034;-70
2023/05/15 08:43:35;;;;;;;4.00;1.10;;;;;;;47.92;5.15;100087.00;5014252;28;20104;-70
2023/05/15 08:46:01;;;;;;;2.53;1.13;;;;;;;49.53;4.43;100079.88;4997825;28;20132;-70
2023/05/15 08:48:28;;;;;;;6.35;1.30;;;;;;;51.28;3.67;100081.56;5014152;28;20204;-70
2023/05/15 08:50:56;;;;;;;4.10;1.20;;;;;;;52.62;2.89;100091.16;5013977;28;20496;-70
2023/05/15 08:53:23;;;;;;;5.28;1.30;;;;;;;53.55;2.58;100078.53;4981726;28;20085;-70
2023/05/15 08:55:49;;;;;;;7.32;1.25;;;;;;;53.27;2.47;100071.41;4997812;28;20045;-70
2023/05/15 08:58:24;;;;;;;6.85;1.48;;;;;;;53.16;2.79;100067.91;5013736;28;20050;-71
2023/05/15 09:00:54;;;;;;;6.22;1.60;;;;;;;50.25;3.39;100058.16;5013756;28;20052;-71
2023/05/15 09:03:22;;;;;;;1.75;1.00;;;;;;;48.82;4.20;100056.56;5013390;28;20092;-70
2023/05/15 09:05:51;;;;;;;3.58;1.30;;;;;;;48.75;4.34;100057.38;5013604;28;20060;-70
2023/05/15 09:08:18;;;;;;;6.88;1.25;;;;;;;49.86;4.02;100046.25;4981357;28;20041;-70
2023/05/15 09:10:44;;;;;;;4.18;1.20;;;;;;;51.34;3.30;100048.75;4997357;28;20528;-70
2023/05/15 09:13:12;;;;;;;7.38;1.20;;;;;;;51.43;3.30;100034.91;5030234;28;20045;-70
2023/05/15 09:15:38;;;;;;;3.58;1.25;;;;;;;49.55;3.63;100032.25;4997227;28;20187;-70
2023/05/15 09:18:05;;;;;;;5.32;1.25;;;;;;;47.08;4.69;100028.19;4996891;28;20058;-70
2023/05/15 09:20:36;;;;;;;6.20;1.45;;;;;;;44.91;5.53;100017.22;4981118;28;20045;-69
2023/05/15 09:23:05;;;;;;;6.03;0.90;;;;;;;42.98;6.41;100005.78;4997177;28;20099;-70
2023/05/15 09:25:33;;;;;;;5.65;1.70;;;;;;;41.47;7.85;100007.25;4980915;28;20073;-69
2023/05/15 09:27:59;;;;;;;4.55;1.50;;;;;;;41.11;7.82;99999.78;4996931;28;20044;-69
2023/05/15 09:30:26;;;;;;;5.05;1.30;;;;;;;43.28;7.12;100012.47;5029768;28;20045;-69
2023/05/15 09:32:53;;;;;;;6.45;1.67;;;;;;;45.63;5.53;100002.66;4997149;28;20141;-70
2023/05/15 09:35:35;;;;;;;5.88;1.70;;;;;;;48.43;4.01;100019.06;5013145;28;20037;-70
2023/05/15 09:38:03;;;;;;;3.22;1.20;;;;;;;50.02;3.74;100024.00;4980794;28;20042;-70
2023/05/15 09:40:30;;;;;;;4.93;0.85;;;;;;;50.53;3.00;100024.00;4980840;28;20046;-70
2023/05/15 09:42:57;;;;;;;2.67;0.80;;;;;;;51.71;2.39;100020.41;4980820;28;20069;-70
2023/05/15 09:45:25;;;;;;;3.20;0.88;;;;;;;53.09;2.30;100014.13;4997075;28;20132;-70
2023/05/15 09:47:52;;;;;;;3.67;0.80;;;;;;;54.36;1.66;100017.84;5013055;28;20054;-70
2023/05/15 09:50:25;;;;;;;6.28;0.82;;;;;;;55.37;1.23;100018.41;4996664;28;20148;-70
2023/05/15 09:52:51;;;;;;;0.88;0.85;;;;;;;55.63;1.13;100017.25;5012958;28;20053;-70
2023/05/15 09:55:21;;;;;;;0.70;0.60;;;;;;;56.37;0.75;100015.75;4996632;28;20045;-70
2023/05/15 09:58:13;;;;;;;2.88;0.80;;;;;;;55.85;0.78;100004.78;4996491;28;20050;-70
2023/05/15 10:00:40;;;;;;;1.15;0.70;;;;;;;56.08;1.00;100006.50;5012847;28;20073;-70
2023/05/15 10:03:07;;;;;;;3.42;0.70;;;;;;;56.61;0.88;100007.59;4996119;28;20103;-70
2023/05/15 10:05:33;;;;;;;6.68;1.00;;;;;;;56.86;0.79;99993.22;5012582;28;20108;-70
2023/05/15 10:07:59;;;;;;;2.78;0.80;;;;;;;57.50;0.58;99989.63;4996508;28;20136;-70
2023/05/15 10:10:28;;;;;;;6.50;1.27;;;;;;;55.16;1.32;99988.53;4996596;28;20041;-70
2023/05/15 10:13:00;;;;;;;3.55;0.82;;;;;;;52.06;2.49;99982.25;5012771;28;20061;-71
2023/05/15 10:15:26;;;;;;;6.07;0.80;;;;;;;50.97;2.72;99971.47;5012060;28;20061;-68
2023/05/15 10:17:54;;;;;;;1.25;0.90;;;;;;;52.06;2.42;99972.91;4995680;28;20069;-70
2023/05/15 10:20:22;;;;;;;4.88;0.90;;;;;;;53.24;1.74;99984.19;5012370;28;20493;-69
2023/05/15 10:22:52;;;;;;;8.20;0.90;;;;;;;54.40;1.10;99977.94;5012276;28;20041;-69
2023/05/15 10:25:39;;;;;;;5.55;1.00;;;;;;;55.72;0.88;99983.16;4979741;28;20056;-70
2023/05/15 10:28:10;;;;;;;1.23;0.80;;;;;;;56.47;0.56;99982.38;4995894;28;20046;-70
2023/05/15 10:30:37;;;;;;;3.00;0.70;;;;;;;56.74;0.65;99977.75;4979869;28;20042;-70
2023/05/15 10:33:07;;;;;;;6.68;0.82;;;;;;;56.84;0.92;99965.13;5028518;28;20050;-70
2023/05/15 10:35:35;;;;;;;4.90;0.82;;;;;;;56.35;0.46;99974.66;5031466;28;20052;-70
2023/05/15 10:38:03;;;;;;;3.70;0.80;;;;;;;56.15;0.66;99967.13;4981975;28;20048;-70
2023/05/15 10:40:31;;;;;;;2.17;0.60;;;;;;;56.25;0.47;99968.81;4998059;28;20099;-70
2023/05/15 10:43:00;;;;;;;1.25;0.63;;;;;;;56.33;0.50;99970.16;4983067;28;20068;-70
2023/05/15 10:45:28;;;;;;;1.52;0.77;;;;;;;54.67;1.02;99964.25;4998352;28;20042;-70
2023/05/15 10:47:54;;;;;;;5.22;0.90;;;;;;;54.28;1.34;99958.75;5013697;28;20038;-70
2023/05/15 10:50:20;;;;;;;3.13;0.80;;;;;;;53.57;1.38;99959.56;4981145;28;20041;-70
2023/05/15 10:52:51;;;;;;;2.22;0.82;;;;;;;52.97;1.35;99965.69;4996345;28;20098;-70
2023/05/15 10:55:21;;;;;;;6.32;1.05;;;;;;;52.85;1.60;99958.59;4997078;28;20618;-70
2023/05/15 10:57:48;;;;;;;12.35;1.58;;;;;;;51.70;1.97;99950.00;4980627;28;20190;-70
2023/05/15 11:00:22;;;;;;;16.10;2.40;;;;;;;52.10;2.00;99951.00;5013340;28;20045;-70
2023/05/15 11:02:52;;;;;;;6.88;1.30;;;;;;;52.06;2.13;99945.38;5013103;28;20049;-70
2023/05/15 11:05:20;;;;;;;11.93;1.95;;;;;;;51.99;2.15;99945.50;5013440;28;20401;-70
2023/05/15 11:08:24;;;;;;;4.07;1.02;;;;;;;51.44;2.65;99936.56;4980389;28;20053;-70
2023/05/15 11:10:52;;;;;;;4.22;1.30;;;;;;;49.51;3.27;99933.44;4996730;28;20046;-69
2023/05/15 11:13:18;;;;;;;3.65;1.00;;;;;;;48.30;3.17;99928.47;5013042;28;20057;-70
2023/05/15 11:15:46;;;;;;;5.47;0.90;;;;;;;46.85;3.85;99931.16;4980487;28;20042;-69
2023/05/15 11:18:13;;;;;;;4.65;0.82;;;;;;;45.70;4.50;99923.31;5012667;28;20060;-69
2023/05/15 11:20:51;;;;;;;4.13;1.08;;;;;;;43.61;5.39;99928.06;5013054;28;20084;-69
2023/05/15 11:23:21;;;;;;;6.63;1.00;;;;;;;42.04;6.04;99915.63;5016276;28;20111;-69
2023/05/15 11:25:57;;;;;;;2.90;0.90;;;;;;;41.40;6.67;99913.00;5000670;28;20633;-69
2023/05/15 11:28:24;;;;;;;2.17;1.13;;;;;;;40.73;6.90;99918.53;4983871;28;20049;-69